Česky Dansk Deutsch English Español Suomi Français Magyar Italiano Nederlands norsk Polski Português svenska Türkçe

 

Het Weer

Abbeville (Frankrijk)

16:00, 5 februari 2012 (GMT)

NWNNE
WE
SWSSE
Home            
Abbeville Le Touquet Beauvais Vittefleur / St. Vale Cambrai Rouen Lille Saint-Quentin Creil Fafb Lydd Airport Koksijde Evreux Paris-Aeroport Charles De Gaulle Paris / Le Bourget Manston, South East Oostende Airport Manston La Heve Paris Met Center Chievres Villacoublay Toussus Le Noble Paris-Orly

Om een weerknop op uw website of weblog te plaatsen, copieer onderstaande code en plak die in uw pagina. In het eerste vakje staat HTML-code, in het tweede vakje UBB-code.


Add to Google

Details

Wind speed:2 bf, 6 kn, 3.1 m/s, 6.9 miles/h, 11.1 km/h
Wind direction:SE, 140°
Visibility:Greater than 10000 m, 10 km, 32800 ft, 6.2 miles
Clouds:CAVOC
Temperature:-4°C, 25°F
Gefühlte Temperatur:-8°C, 17°F
Dew-point:-7°C, 19°F
Atmospheric pressure:1030 hPa, 772.6 mmHg, 30.42 inHg, 1.017 atm
Relative humidity:79.5 %
METAR:LFOI 051600Z 14006KT CAVOK M04/M07 Q1030

Snelkoppelingen

Actuele weersinformatie van de hele wereld. Voeg locaties toe met het plus (+) symbool. Deze snelkoppelingen kunnen worden toegevoegd aan Google.

Lid van de Technetium groep

website free tracking
StatCounter NetStat W3C Validator

10-08-2022 07:46:34
astro.technetium.be money.technetium.be phote.technetium.be tafeltennistafel.technetium.be www.ligfiets.net